sensor_id;sensor_type;location;lat;lon;timestamp;P1;durP1;ratioP1;P2;durP2;ratioP2
70729;SDS011;58315;53.336;55.932;2023-02-26T00:01:26;7.47;;;2.67;;
70729;SDS011;58315;53.336;55.932;2023-02-26T00:03:55;5.18;;;1.95;;
70729;SDS011;58315;53.336;55.932;2023-02-26T00:06:23;9.27;;;3.40;;
70729;SDS011;58315;53.336;55.932;2023-02-26T00:08:50;7.03;;;2.80;;
70729;SDS011;58315;53.336;55.932;2023-02-26T00:11:19;7.05;;;2.33;;
70729;SDS011;58315;53.336;55.932;2023-02-26T00:13:45;7.43;;;2.78;;
70729;SDS011;58315;53.336;55.932;2023-02-26T00:18:43;6.47;;;2.53;;
70729;SDS011;58315;53.336;55.932;2023-02-26T00:21:14;14.77;;;3.60;;
70729;SDS011;58315;53.336;55.932;2023-02-26T00:23:42;5.93;;;3.00;;
70729;SDS011;58315;53.336;55.932;2023-02-26T00:26:08;4.93;;;2.28;;
70729;SDS011;58315;53.336;55.932;2023-02-26T00:28:35;18.25;;;3.35;;
70729;SDS011;58315;53.336;55.932;2023-02-26T00:31:01;7.15;;;3.03;;
70729;SDS011;58315;53.336;55.932;2023-02-26T00:33:27;8.15;;;3.47;;
70729;SDS011;58315;53.336;55.932;2023-02-26T00:35:55;11.70;;;2.00;;
70729;SDS011;58315;53.336;55.932;2023-02-26T00:38:33;7.88;;;2.25;;
70729;SDS011;58315;53.336;55.932;2023-02-26T00:41:01;7.22;;;3.25;;
70729;SDS011;58315;53.336;55.932;2023-02-26T00:43:27;4.15;;;2.78;;
70729;SDS011;58315;53.336;55.932;2023-02-26T00:48:29;9.10;;;3.35;;
70729;SDS011;58315;53.336;55.932;2023-02-26T00:56:36;8.63;;;3.22;;
70729;SDS011;58315;53.336;55.932;2023-02-26T00:59:02;9.93;;;2.95;;
70729;SDS011;58315;53.336;55.932;2023-02-26T01:01:28;7.55;;;3.17;;
70729;SDS011;58315;53.336;55.932;2023-02-26T01:03:55;6.97;;;2.80;;
70729;SDS011;58315;53.336;55.932;2023-02-26T01:06:21;8.45;;;3.28;;
70729;SDS011;58315;53.336;55.932;2023-02-26T01:11:28;2.83;;;1.60;;
70729;SDS011;58315;53.336;55.932;2023-02-26T01:13:54;5.25;;;2.30;;
70729;SDS011;58315;53.336;55.932;2023-02-26T01:16:24;6.53;;;2.92;;
70729;SDS011;58315;53.336;55.932;2023-02-26T01:21:33;3.53;;;2.42;;
70729;SDS011;58315;53.336;55.932;2023-02-26T01:24:06;6.78;;;3.50;;
70729;SDS011;58315;53.336;55.932;2023-02-26T01:26:37;7.38;;;3.17;;
70729;SDS011;58315;53.336;55.932;2023-02-26T01:29:03;9.45;;;3.50;;
70729;SDS011;58315;53.336;55.932;2023-02-26T01:34:17;13.35;;;3.30;;
70729;SDS011;58315;53.336;55.932;2023-02-26T01:36:57;6.85;;;2.67;;
70729;SDS011;58315;53.336;55.932;2023-02-26T01:39:39;7.88;;;3.20;;
70729;SDS011;58315;53.336;55.932;2023-02-26T01:44:58;13.13;;;3.70;;
70729;SDS011;58315;53.336;55.932;2023-02-26T01:50:15;8.85;;;3.03;;
70729;SDS011;58315;53.336;55.932;2023-02-26T01:55:26;3.60;;;2.22;;
70729;SDS011;58315;53.336;55.932;2023-02-26T01:57:55;3.38;;;1.75;;
70729;SDS011;58315;53.336;55.932;2023-02-26T02:00:23;9.00;;;2.83;;
70729;SDS011;58315;53.336;55.932;2023-02-26T02:02:52;4.68;;;2.90;;
70729;SDS011;58315;53.336;55.932;2023-02-26T02:05:23;10.25;;;3.58;;
70729;SDS011;58315;53.336;55.932;2023-02-26T02:07:54;3.25;;;2.03;;
70729;SDS011;58315;53.336;55.932;2023-02-26T02:10:23;28.17;;;3.70;;
70729;SDS011;58315;53.336;55.932;2023-02-26T02:12:53;8.32;;;3.20;;
70729;SDS011;58315;53.336;55.932;2023-02-26T02:16:01;4.35;;;2.45;;
70729;SDS011;58315;53.336;55.932;2023-02-26T02:18:46;5.32;;;2.30;;
70729;SDS011;58315;53.336;55.932;2023-02-26T02:21:40;6.18;;;3.20;;
70729;SDS011;58315;53.336;55.932;2023-02-26T02:27:25;4.38;;;2.33;;
70729;SDS011;58315;53.336;55.932;2023-02-26T02:35:29;12.00;;;3.00;;
70729;SDS011;58315;53.336;55.932;2023-02-26T02:38:03;5.53;;;2.28;;
70729;SDS011;58315;53.336;55.932;2023-02-26T02:40:38;8.02;;;3.03;;
70729;SDS011;58315;53.336;55.932;2023-02-26T02:43:15;2.67;;;1.60;;
70729;SDS011;58315;53.336;55.932;2023-02-26T02:48:40;6.47;;;3.22;;
70729;SDS011;58315;53.336;55.932;2023-02-26T02:51:10;5.53;;;3.05;;
70729;SDS011;58315;53.336;55.932;2023-02-26T02:53:45;6.20;;;2.78;;
70729;SDS011;58315;53.336;55.932;2023-02-26T02:58:49;8.50;;;3.45;;
70729;SDS011;58315;53.336;55.932;2023-02-26T03:01:20;5.22;;;2.20;;
70729;SDS011;58315;53.336;55.932;2023-02-26T03:04:02;8.02;;;3.08;;
70729;SDS011;58315;53.336;55.932;2023-02-26T03:06:35;3.90;;;1.65;;
70729;SDS011;58315;53.336;55.932;2023-02-26T03:09:02;3.53;;;2.30;;
70729;SDS011;58315;53.336;55.932;2023-02-26T03:11:31;8.48;;;2.85;;
70729;SDS011;58315;53.336;55.932;2023-02-26T03:13:59;6.57;;;1.95;;
70729;SDS011;58315;53.336;55.932;2023-02-26T03:21:55;9.50;;;3.10;;
70729;SDS011;58315;53.336;55.932;2023-02-26T03:24:50;4.60;;;1.80;;
70729;SDS011;58315;53.336;55.932;2023-02-26T03:27:24;27.73;;;3.03;;
70729;SDS011;58315;53.336;55.932;2023-02-26T03:30:06;3.08;;;2.22;;
70729;SDS011;58315;53.336;55.932;2023-02-26T03:37:57;3.38;;;1.77;;
70729;SDS011;58315;53.336;55.932;2023-02-26T03:40:33;4.47;;;2.22;;
70729;SDS011;58315;53.336;55.932;2023-02-26T03:43:10;4.82;;;2.28;;
70729;SDS011;58315;53.336;55.932;2023-02-26T03:45:43;6.15;;;3.38;;
70729;SDS011;58315;53.336;55.932;2023-02-26T03:48:12;12.27;;;3.70;;
70729;SDS011;58315;53.336;55.932;2023-02-26T03:53:30;5.50;;;2.50;;
70729;SDS011;58315;53.336;55.932;2023-02-26T03:59:17;10.75;;;3.28;;
70729;SDS011;58315;53.336;55.932;2023-02-26T04:01:51;9.90;;;3.13;;
70729;SDS011;58315;53.336;55.932;2023-02-26T04:04:48;4.78;;;2.60;;
70729;SDS011;58315;53.336;55.932;2023-02-26T04:07:19;6.20;;;2.17;;
70729;SDS011;58315;53.336;55.932;2023-02-26T04:09:48;7.18;;;2.90;;
70729;SDS011;58315;53.336;55.932;2023-02-26T04:12:20;6.53;;;3.05;;
70729;SDS011;58315;53.336;55.932;2023-02-26T04:14:48;5.43;;;2.65;;
70729;SDS011;58315;53.336;55.932;2023-02-26T04:17:15;10.38;;;3.40;;
70729;SDS011;58315;53.336;55.932;2023-02-26T04:19:41;9.82;;;4.50;;
70729;SDS011;58315;53.336;55.932;2023-02-26T04:22:07;8.88;;;4.90;;
70729;SDS011;58315;53.336;55.932;2023-02-26T04:24:33;6.82;;;3.28;;
70729;SDS011;58315;53.336;55.932;2023-02-26T04:27:00;6.45;;;3.17;;
70729;SDS011;58315;53.336;55.932;2023-02-26T04:29:26;5.40;;;2.55;;
70729;SDS011;58315;53.336;55.932;2023-02-26T04:31:53;6.60;;;3.08;;
70729;SDS011;58315;53.336;55.932;2023-02-26T04:34:19;5.25;;;2.25;;
70729;SDS011;58315;53.336;55.932;2023-02-26T04:36:45;7.85;;;2.83;;
70729;SDS011;58315;53.336;55.932;2023-02-26T04:39:11;13.85;;;3.88;;
70729;SDS011;58315;53.336;55.932;2023-02-26T04:41:37;6.57;;;2.72;;
70729;SDS011;58315;53.336;55.932;2023-02-26T04:44:04;4.97;;;2.58;;
70729;SDS011;58315;53.336;55.932;2023-02-26T04:46:31;9.80;;;2.85;;
70729;SDS011;58315;53.336;55.932;2023-02-26T04:48:57;6.30;;;2.80;;
70729;SDS011;58315;53.336;55.932;2023-02-26T04:51:23;10.55;;;3.42;;
70729;SDS011;58315;53.336;55.932;2023-02-26T04:53:51;8.80;;;3.75;;
70729;SDS011;58315;53.336;55.932;2023-02-26T04:56:18;8.20;;;3.55;;
70729;SDS011;58315;53.336;55.932;2023-02-26T04:58:44;7.70;;;2.90;;
70729;SDS011;58315;53.336;55.932;2023-02-26T05:01:16;11.95;;;3.55;;
70729;SDS011;58315;53.336;55.932;2023-02-26T05:03:42;7.47;;;3.45;;
70729;SDS011;58315;53.336;55.932;2023-02-26T05:06:08;8.98;;;3.83;;
70729;SDS011;58315;53.336;55.932;2023-02-26T05:08:35;7.45;;;3.50;;
70729;SDS011;58315;53.336;55.932;2023-02-26T05:13:32;8.23;;;2.88;;
70729;SDS011;58315;53.336;55.932;2023-02-26T05:15:58;8.30;;;2.58;;
70729;SDS011;58315;53.336;55.932;2023-02-26T05:18:24;9.82;;;2.65;;
70729;SDS011;58315;53.336;55.932;2023-02-26T05:20:53;7.13;;;3.25;;
70729;SDS011;58315;53.336;55.932;2023-02-26T05:23:20;8.88;;;3.20;;
70729;SDS011;58315;53.336;55.932;2023-02-26T05:25:47;14.93;;;3.72;;
70729;SDS011;58315;53.336;55.932;2023-02-26T05:28:13;8.10;;;3.40;;
70729;SDS011;58315;53.336;55.932;2023-02-26T05:30:40;8.13;;;3.50;;
70729;SDS011;58315;53.336;55.932;2023-02-26T05:33:07;8.15;;;3.53;;
70729;SDS011;58315;53.336;55.932;2023-02-26T05:35:36;7.00;;;2.85;;
70729;SDS011;58315;53.336;55.932;2023-02-26T05:38:02;10.88;;;3.53;;
70729;SDS011;58315;53.336;55.932;2023-02-26T05:40:28;7.75;;;3.28;;
70729;SDS011;58315;53.336;55.932;2023-02-26T05:42:54;7.18;;;3.70;;
70729;SDS011;58315;53.336;55.932;2023-02-26T05:45:19;12.63;;;4.05;;
70729;SDS011;58315;53.336;55.932;2023-02-26T05:47:45;9.10;;;4.05;;
70729;SDS011;58315;53.336;55.932;2023-02-26T05:50:11;9.30;;;3.72;;
70729;SDS011;58315;53.336;55.932;2023-02-26T05:52:37;16.98;;;3.75;;
70729;SDS011;58315;53.336;55.932;2023-02-26T05:55:04;11.40;;;3.97;;
70729;SDS011;58315;53.336;55.932;2023-02-26T05:57:30;11.48;;;3.53;;
70729;SDS011;58315;53.336;55.932;2023-02-26T05:59:59;4.93;;;2.53;;
70729;SDS011;58315;53.336;55.932;2023-02-26T06:02:25;9.00;;;3.70;;
70729;SDS011;58315;53.336;55.932;2023-02-26T06:04:51;8.85;;;3.97;;
70729;SDS011;58315;53.336;55.932;2023-02-26T06:07:17;7.88;;;3.10;;
70729;SDS011;58315;53.336;55.932;2023-02-26T06:09:46;7.90;;;3.47;;
70729;SDS011;58315;53.336;55.932;2023-02-26T06:12:11;7.28;;;3.22;;
70729;SDS011;58315;53.336;55.932;2023-02-26T06:14:37;8.25;;;3.92;;
70729;SDS011;58315;53.336;55.932;2023-02-26T06:17:03;17.90;;;4.32;;
70729;SDS011;58315;53.336;55.932;2023-02-26T06:19:29;11.20;;;3.55;;
70729;SDS011;58315;53.336;55.932;2023-02-26T06:21:55;15.25;;;3.90;;
70729;SDS011;58315;53.336;55.932;2023-02-26T06:24:21;6.65;;;2.70;;
70729;SDS011;58315;53.336;55.932;2023-02-26T06:26:47;16.27;;;3.33;;
70729;SDS011;58315;53.336;55.932;2023-02-26T06:29:13;7.57;;;2.75;;
70729;SDS011;58315;53.336;55.932;2023-02-26T06:31:39;8.20;;;3.63;;
70729;SDS011;58315;53.336;55.932;2023-02-26T06:34:05;14.70;;;4.10;;
70729;SDS011;58315;53.336;55.932;2023-02-26T06:36:31;13.88;;;3.55;;
70729;SDS011;58315;53.336;55.932;2023-02-26T06:38:57;12.93;;;3.60;;
70729;SDS011;58315;53.336;55.932;2023-02-26T06:41:23;17.10;;;3.95;;
70729;SDS011;58315;53.336;55.932;2023-02-26T06:43:49;13.55;;;4.53;;
70729;SDS011;58315;53.336;55.932;2023-02-26T06:46:15;12.00;;;4.22;;
70729;SDS011;58315;53.336;55.932;2023-02-26T06:48:41;6.95;;;3.45;;
70729;SDS011;58315;53.336;55.932;2023-02-26T06:51:07;8.23;;;3.63;;
70729;SDS011;58315;53.336;55.932;2023-02-26T06:53:34;12.18;;;3.63;;
70729;SDS011;58315;53.336;55.932;2023-02-26T06:56:00;14.93;;;3.97;;
70729;SDS011;58315;53.336;55.932;2023-02-26T06:58:26;7.82;;;3.05;;
70729;SDS011;58315;53.336;55.932;2023-02-26T07:00:52;8.45;;;3.17;;
70729;SDS011;58315;53.336;55.932;2023-02-26T07:03:17;11.52;;;3.85;;
70729;SDS011;58315;53.336;55.932;2023-02-26T07:05:44;25.52;;;3.88;;
70729;SDS011;58315;53.336;55.932;2023-02-26T07:08:11;6.93;;;2.63;;
70729;SDS011;58315;53.336;55.932;2023-02-26T07:10:38;9.13;;;2.88;;
70729;SDS011;58315;53.336;55.932;2023-02-26T07:13:04;6.95;;;2.80;;
70729;SDS011;58315;53.336;55.932;2023-02-26T07:15:30;10.63;;;3.63;;
70729;SDS011;58315;53.336;55.932;2023-02-26T07:17:57;11.38;;;4.25;;
70729;SDS011;58315;53.336;55.932;2023-02-26T07:20:25;8.80;;;3.72;;
70729;SDS011;58315;53.336;55.932;2023-02-26T07:22:52;10.30;;;4.45;;
70729;SDS011;58315;53.336;55.932;2023-02-26T07:25:17;15.68;;;4.00;;
70729;SDS011;58315;53.336;55.932;2023-02-26T07:28:03;8.27;;;3.30;;
70729;SDS011;58315;53.336;55.932;2023-02-26T07:30:29;11.23;;;3.90;;
70729;SDS011;58315;53.336;55.932;2023-02-26T07:32:56;9.40;;;3.63;;
70729;SDS011;58315;53.336;55.932;2023-02-26T07:35:21;16.73;;;4.75;;
70729;SDS011;58315;53.336;55.932;2023-02-26T07:37:48;9.88;;;3.80;;
70729;SDS011;58315;53.336;55.932;2023-02-26T07:40:14;13.05;;;4.78;;
70729;SDS011;58315;53.336;55.932;2023-02-26T07:42:40;11.68;;;3.40;;
70729;SDS011;58315;53.336;55.932;2023-02-26T07:45:07;8.43;;;3.75;;
70729;SDS011;58315;53.336;55.932;2023-02-26T07:47:33;12.55;;;4.20;;
70729;SDS011;58315;53.336;55.932;2023-02-26T07:49:59;9.68;;;3.85;;
70729;SDS011;58315;53.336;55.932;2023-02-26T07:52:25;14.35;;;4.70;;
70729;SDS011;58315;53.336;55.932;2023-02-26T07:54:51;11.77;;;4.50;;
70729;SDS011;58315;53.336;55.932;2023-02-26T07:57:18;8.88;;;3.50;;
70729;SDS011;58315;53.336;55.932;2023-02-26T07:59:44;12.77;;;4.40;;
70729;SDS011;58315;53.336;55.932;2023-02-26T08:02:10;19.30;;;5.30;;
70729;SDS011;58315;53.336;55.932;2023-02-26T08:04:37;12.02;;;5.35;;
70729;SDS011;58315;53.336;55.932;2023-02-26T08:07:04;18.65;;;5.60;;
70729;SDS011;58315;53.336;55.932;2023-02-26T08:09:29;20.15;;;4.22;;
70729;SDS011;58315;53.336;55.932;2023-02-26T08:11:55;9.05;;;4.80;;
70729;SDS011;58315;53.336;55.932;2023-02-26T08:14:22;22.08;;;5.30;;
70729;SDS011;58315;53.336;55.932;2023-02-26T08:16:48;10.07;;;4.28;;
70729;SDS011;58315;53.336;55.932;2023-02-26T08:19:14;12.13;;;4.93;;
70729;SDS011;58315;53.336;55.932;2023-02-26T08:21:40;16.65;;;5.30;;
70729;SDS011;58315;53.336;55.932;2023-02-26T08:24:06;14.98;;;5.50;;
70729;SDS011;58315;53.336;55.932;2023-02-26T08:26:34;12.23;;;3.85;;
70729;SDS011;58315;53.336;55.932;2023-02-26T08:29:01;14.85;;;4.35;;
70729;SDS011;58315;53.336;55.932;2023-02-26T08:31:27;11.73;;;4.07;;
70729;SDS011;58315;53.336;55.932;2023-02-26T08:33:53;12.15;;;4.10;;
70729;SDS011;58315;53.336;55.932;2023-02-26T08:36:19;12.57;;;4.30;;
70729;SDS011;58315;53.336;55.932;2023-02-26T08:38:48;16.75;;;4.50;;
70729;SDS011;58315;53.336;55.932;2023-02-26T08:41:14;12.70;;;4.88;;
70729;SDS011;58315;53.336;55.932;2023-02-26T08:43:40;7.75;;;4.15;;
70729;SDS011;58315;53.336;55.932;2023-02-26T08:46:06;15.93;;;5.15;;
70729;SDS011;58315;53.336;55.932;2023-02-26T08:48:32;10.68;;;4.80;;
70729;SDS011;58315;53.336;55.932;2023-02-26T08:50:58;13.20;;;5.05;;
70729;SDS011;58315;53.336;55.932;2023-02-26T08:53:42;14.80;;;5.22;;
70729;SDS011;58315;53.336;55.932;2023-02-26T08:56:10;11.63;;;4.28;;
70729;SDS011;58315;53.336;55.932;2023-02-26T08:58:39;14.73;;;4.53;;
70729;SDS011;58315;53.336;55.932;2023-02-26T09:01:05;15.13;;;4.75;;
70729;SDS011;58315;53.336;55.932;2023-02-26T09:03:31;9.45;;;4.15;;
70729;SDS011;58315;53.336;55.932;2023-02-26T09:05:57;9.20;;;3.72;;
70729;SDS011;58315;53.336;55.932;2023-02-26T09:08:23;12.00;;;4.53;;
70729;SDS011;58315;53.336;55.932;2023-02-26T09:10:48;13.45;;;4.55;;
70729;SDS011;58315;53.336;55.932;2023-02-26T09:13:14;14.75;;;4.65;;
70729;SDS011;58315;53.336;55.932;2023-02-26T09:15:41;11.65;;;4.75;;
70729;SDS011;58315;53.336;55.932;2023-02-26T09:18:08;16.48;;;5.07;;
70729;SDS011;58315;53.336;55.932;2023-02-26T09:20:43;13.85;;;5.38;;
70729;SDS011;58315;53.336;55.932;2023-02-26T09:23:10;23.75;;;6.25;;
70729;SDS011;58315;53.336;55.932;2023-02-26T09:25:39;7.97;;;3.78;;
70729;SDS011;58315;53.336;55.932;2023-02-26T09:28:05;10.48;;;4.68;;
70729;SDS011;58315;53.336;55.932;2023-02-26T09:30:31;19.98;;;5.68;;
70729;SDS011;58315;53.336;55.932;2023-02-26T09:32:57;11.35;;;4.65;;
70729;SDS011;58315;53.336;55.932;2023-02-26T09:35:23;19.38;;;5.75;;
70729;SDS011;58315;53.336;55.932;2023-02-26T09:37:49;13.90;;;5.57;;
70729;SDS011;58315;53.336;55.932;2023-02-26T09:40:35;23.77;;;6.43;;
70729;SDS011;58315;53.336;55.932;2023-02-26T09:45:44;14.93;;;4.28;;
70729;SDS011;58315;53.336;55.932;2023-02-26T09:48:14;13.10;;;4.25;;
70729;SDS011;58315;53.336;55.932;2023-02-26T09:50:51;13.45;;;4.35;;
70729;SDS011;58315;53.336;55.932;2023-02-26T09:53:24;11.45;;;4.50;;
70729;SDS011;58315;53.336;55.932;2023-02-26T09:56:07;19.13;;;5.57;;
70729;SDS011;58315;53.336;55.932;2023-02-26T09:58:39;13.63;;;5.05;;
70729;SDS011;58315;53.336;55.932;2023-02-26T10:06:41;8.85;;;3.83;;
70729;SDS011;58315;53.336;55.932;2023-02-26T10:12:20;23.63;;;4.75;;
70729;SDS011;58315;53.336;55.932;2023-02-26T10:18:13;6.72;;;3.13;;
70729;SDS011;58315;53.336;55.932;2023-02-26T10:20:57;13.23;;;4.80;;
70729;SDS011;58315;53.336;55.932;2023-02-26T10:26:29;17.95;;;5.25;;
70729;SDS011;58315;53.336;55.932;2023-02-26T10:29:10;13.40;;;5.25;;
70729;SDS011;58315;53.336;55.932;2023-02-26T10:34:30;10.23;;;3.97;;
70729;SDS011;58315;53.336;55.932;2023-02-26T10:42:49;11.50;;;4.40;;
70729;SDS011;58315;53.336;55.932;2023-02-26T10:45:29;15.77;;;6.00;;
70729;SDS011;58315;53.336;55.932;2023-02-26T10:48:25;10.00;;;3.50;;
70729;SDS011;58315;53.336;55.932;2023-02-26T10:50:54;9.05;;;4.45;;
70729;SDS011;58315;53.336;55.932;2023-02-26T10:53:22;11.25;;;4.80;;
70729;SDS011;58315;53.336;55.932;2023-02-26T10:58:37;19.00;;;7.32;;
70729;SDS011;58315;53.336;55.932;2023-02-26T11:01:03;16.17;;;5.28;;
70729;SDS011;58315;53.336;55.932;2023-02-26T11:03:40;17.55;;;6.35;;
70729;SDS011;58315;53.336;55.932;2023-02-26T11:06:09;13.32;;;5.30;;
70729;SDS011;58315;53.336;55.932;2023-02-26T11:08:46;23.35;;;6.05;;
70729;SDS011;58315;53.336;55.932;2023-02-26T11:14:06;13.85;;;5.72;;
70729;SDS011;58315;53.336;55.932;2023-02-26T11:16:33;31.45;;;5.95;;
70729;SDS011;58315;53.336;55.932;2023-02-26T11:19:00;13.98;;;5.60;;
70729;SDS011;58315;53.336;55.932;2023-02-26T11:21:37;11.85;;;5.07;;
70729;SDS011;58315;53.336;55.932;2023-02-26T11:24:06;15.07;;;5.82;;
70729;SDS011;58315;53.336;55.932;2023-02-26T11:26:36;13.18;;;5.90;;
70729;SDS011;58315;53.336;55.932;2023-02-26T11:29:03;10.95;;;5.18;;
70729;SDS011;58315;53.336;55.932;2023-02-26T11:31:31;17.75;;;7.38;;
70729;SDS011;58315;53.336;55.932;2023-02-26T11:34:01;12.48;;;5.32;;
70729;SDS011;58315;53.336;55.932;2023-02-26T11:36:30;13.80;;;5.38;;
70729;SDS011;58315;53.336;55.932;2023-02-26T11:39:17;17.27;;;5.35;;
70729;SDS011;58315;53.336;55.932;2023-02-26T11:41:47;16.77;;;6.50;;
70729;SDS011;58315;53.336;55.932;2023-02-26T11:47:06;24.33;;;6.32;;
70729;SDS011;58315;53.336;55.932;2023-02-26T11:49:35;20.20;;;6.03;;
70729;SDS011;58315;53.336;55.932;2023-02-26T11:54:37;19.23;;;5.57;;
70729;SDS011;58315;53.336;55.932;2023-02-26T11:57:14;21.92;;;5.63;;
70729;SDS011;58315;53.336;55.932;2023-02-26T11:59:44;15.73;;;6.22;;
70729;SDS011;58315;53.336;55.932;2023-02-26T12:02:14;12.82;;;5.43;;
70729;SDS011;58315;53.336;55.932;2023-02-26T12:04:43;11.77;;;4.47;;
70729;SDS011;58315;53.336;55.932;2023-02-26T12:07:13;12.00;;;5.55;;
70729;SDS011;58315;53.336;55.932;2023-02-26T12:09:40;7.25;;;3.67;;
70729;SDS011;58315;53.336;55.932;2023-02-26T12:12:41;14.60;;;6.15;;
70729;SDS011;58315;53.336;55.932;2023-02-26T12:15:07;17.95;;;6.80;;
70729;SDS011;58315;53.336;55.932;2023-02-26T12:20:36;12.73;;;4.38;;
70729;SDS011;58315;53.336;55.932;2023-02-26T12:31:59;13.05;;;6.00;;
70729;SDS011;58315;53.336;55.932;2023-02-26T12:37:28;12.73;;;5.53;;
70729;SDS011;58315;53.336;55.932;2023-02-26T12:43:21;13.98;;;4.20;;
70729;SDS011;58315;53.336;55.932;2023-02-26T12:57:44;20.38;;;4.85;;
70729;SDS011;58315;53.336;55.932;2023-02-26T13:06:10;15.15;;;5.18;;
70729;SDS011;58315;53.336;55.932;2023-02-26T13:17:12;23.63;;;4.05;;
70729;SDS011;58315;53.336;55.932;2023-02-26T13:19:58;5.20;;;2.65;;
70729;SDS011;58315;53.336;55.932;2023-02-26T13:22:42;9.73;;;3.78;;
70729;SDS011;58315;53.336;55.932;2023-02-26T13:27:47;11.10;;;4.63;;
70729;SDS011;58315;53.336;55.932;2023-02-26T13:30:18;7.40;;;3.97;;
70729;SDS011;58315;53.336;55.932;2023-02-26T13:33:03;5.63;;;2.90;;
70729;SDS011;58315;53.336;55.932;2023-02-26T13:35:38;12.52;;;4.30;;
70729;SDS011;58315;53.336;55.932;2023-02-26T13:46:40;21.80;;;4.28;;
70729;SDS011;58315;53.336;55.932;2023-02-26T13:49:40;11.73;;;3.47;;
70729;SDS011;58315;53.336;55.932;2023-02-26T13:52:28;8.02;;;3.65;;
70729;SDS011;58315;53.336;55.932;2023-02-26T13:54:56;8.98;;;4.07;;
70729;SDS011;58315;53.336;55.932;2023-02-26T13:57:25;16.95;;;5.32;;
70729;SDS011;58315;53.336;55.932;2023-02-26T14:00:09;13.90;;;4.93;;
70729;SDS011;58315;53.336;55.932;2023-02-26T14:02:57;9.45;;;3.72;;
70729;SDS011;58315;53.336;55.932;2023-02-26T14:11:01;9.45;;;3.63;;
70729;SDS011;58315;53.336;55.932;2023-02-26T14:16:10;8.13;;;3.55;;
70729;SDS011;58315;53.336;55.932;2023-02-26T14:18:52;8.77;;;3.78;;
70729;SDS011;58315;53.336;55.932;2023-02-26T14:23:55;8.75;;;3.28;;
70729;SDS011;58315;53.336;55.932;2023-02-26T14:26:24;6.90;;;3.53;;
70729;SDS011;58315;53.336;55.932;2023-02-26T14:28:56;8.73;;;3.40;;
70729;SDS011;58315;53.336;55.932;2023-02-26T14:31:45;6.93;;;3.85;;
70729;SDS011;58315;53.336;55.932;2023-02-26T14:36:59;9.40;;;4.03;;
70729;SDS011;58315;53.336;55.932;2023-02-26T14:39:30;12.32;;;4.18;;
70729;SDS011;58315;53.336;55.932;2023-02-26T14:42:20;10.15;;;4.00;;
70729;SDS011;58315;53.336;55.932;2023-02-26T14:44:50;11.27;;;4.50;;
70729;SDS011;58315;53.336;55.932;2023-02-26T14:47:25;11.70;;;5.43;;
70729;SDS011;58315;53.336;55.932;2023-02-26T14:49:51;7.72;;;3.22;;
70729;SDS011;58315;53.336;55.932;2023-02-26T15:08:54;8.63;;;4.20;;
70729;SDS011;58315;53.336;55.932;2023-02-26T15:11:36;11.27;;;4.13;;
70729;SDS011;58315;53.336;55.932;2023-02-26T15:25:04;5.88;;;2.20;;
70729;SDS011;58315;53.336;55.932;2023-02-26T15:28:01;8.70;;;3.85;;
70729;SDS011;58315;53.336;55.932;2023-02-26T15:30:30;15.38;;;5.88;;
70729;SDS011;58315;53.336;55.932;2023-02-26T15:32:59;11.98;;;5.47;;
70729;SDS011;58315;53.336;55.932;2023-02-26T15:35:28;9.40;;;3.53;;
70729;SDS011;58315;53.336;55.932;2023-02-26T15:37:58;11.43;;;4.25;;
70729;SDS011;58315;53.336;55.932;2023-02-26T15:40:26;11.05;;;4.30;;
70729;SDS011;58315;53.336;55.932;2023-02-26T15:42:56;15.18;;;5.88;;
70729;SDS011;58315;53.336;55.932;2023-02-26T15:48:00;10.93;;;4.65;;
70729;SDS011;58315;53.336;55.932;2023-02-26T15:50:30;5.90;;;2.63;;
70729;SDS011;58315;53.336;55.932;2023-02-26T15:53:03;9.63;;;4.68;;
70729;SDS011;58315;53.336;55.932;2023-02-26T15:55:36;9.77;;;4.22;;
70729;SDS011;58315;53.336;55.932;2023-02-26T15:58:13;6.88;;;3.58;;
70729;SDS011;58315;53.336;55.932;2023-02-26T16:00:52;10.93;;;3.50;;
70729;SDS011;58315;53.336;55.932;2023-02-26T16:03:31;8.60;;;3.92;;
70729;SDS011;58315;53.336;55.932;2023-02-26T16:05:59;11.65;;;2.72;;
70729;SDS011;58315;53.336;55.932;2023-02-26T16:08:25;7.60;;;2.92;;
70729;SDS011;58315;53.336;55.932;2023-02-26T16:10:52;10.13;;;4.22;;
70729;SDS011;58315;53.336;55.932;2023-02-26T16:13:26;13.15;;;3.33;;
70729;SDS011;58315;53.336;55.932;2023-02-26T16:15:58;11.93;;;3.17;;
70729;SDS011;58315;53.336;55.932;2023-02-26T16:18:28;6.72;;;2.67;;
70729;SDS011;58315;53.336;55.932;2023-02-26T16:21:00;11.35;;;4.38;;
70729;SDS011;58315;53.336;55.932;2023-02-26T16:23:33;7.90;;;3.45;;
70729;SDS011;58315;53.336;55.932;2023-02-26T16:26:15;8.40;;;3.97;;
70729;SDS011;58315;53.336;55.932;2023-02-26T16:28:45;14.05;;;3.85;;
70729;SDS011;58315;53.336;55.932;2023-02-26T16:31:17;9.95;;;3.50;;
70729;SDS011;58315;53.336;55.932;2023-02-26T16:33:50;7.05;;;3.15;;
70729;SDS011;58315;53.336;55.932;2023-02-26T16:39:25;7.63;;;3.03;;
70729;SDS011;58315;53.336;55.932;2023-02-26T16:42:08;4.32;;;2.17;;
70729;SDS011;58315;53.336;55.932;2023-02-26T16:44:49;14.73;;;3.45;;
70729;SDS011;58315;53.336;55.932;2023-02-26T16:47:28;11.38;;;3.40;;
70729;SDS011;58315;53.336;55.932;2023-02-26T16:49:55;6.60;;;3.00;;
70729;SDS011;58315;53.336;55.932;2023-02-26T16:52:23;11.85;;;3.67;;
70729;SDS011;58315;53.336;55.932;2023-02-26T16:54:52;6.97;;;3.20;;
70729;SDS011;58315;53.336;55.932;2023-02-26T16:57:23;8.40;;;2.45;;
70729;SDS011;58315;53.336;55.932;2023-02-26T16:59:57;7.20;;;3.05;;
70729;SDS011;58315;53.336;55.932;2023-02-26T17:02:30;4.25;;;2.63;;
70729;SDS011;58315;53.336;55.932;2023-02-26T17:05:00;5.78;;;3.10;;
70729;SDS011;58315;53.336;55.932;2023-02-26T17:07:34;12.27;;;4.82;;
70729;SDS011;58315;53.336;55.932;2023-02-26T17:10:12;7.13;;;3.20;;
70729;SDS011;58315;53.336;55.932;2023-02-26T17:12:48;8.30;;;3.22;;
70729;SDS011;58315;53.336;55.932;2023-02-26T17:15:17;5.18;;;2.65;;
70729;SDS011;58315;53.336;55.932;2023-02-26T17:17:46;5.15;;;2.10;;
70729;SDS011;58315;53.336;55.932;2023-02-26T17:20:13;8.63;;;3.28;;
70729;SDS011;58315;53.336;55.932;2023-02-26T17:22:39;14.80;;;4.43;;
70729;SDS011;58315;53.336;55.932;2023-02-26T17:25:12;15.00;;;4.00;;
70729;SDS011;58315;53.336;55.932;2023-02-26T17:27:40;4.75;;;2.70;;
70729;SDS011;58315;53.336;55.932;2023-02-26T17:30:06;8.30;;;2.97;;
70729;SDS011;58315;53.336;55.932;2023-02-26T17:32:34;6.78;;;3.25;;
70729;SDS011;58315;53.336;55.932;2023-02-26T17:35:00;7.50;;;3.25;;
70729;SDS011;58315;53.336;55.932;2023-02-26T17:37:29;6.78;;;3.13;;
70729;SDS011;58315;53.336;55.932;2023-02-26T17:39:58;7.47;;;3.35;;
70729;SDS011;58315;53.336;55.932;2023-02-26T17:42:24;13.63;;;4.80;;
70729;SDS011;58315;53.336;55.932;2023-02-26T17:44:50;7.07;;;3.53;;
70729;SDS011;58315;53.336;55.932;2023-02-26T17:47:18;5.03;;;2.78;;
70729;SDS011;58315;53.336;55.932;2023-02-26T17:49:49;8.95;;;3.83;;
70729;SDS011;58315;53.336;55.932;2023-02-26T17:52:15;7.55;;;3.63;;
70729;SDS011;58315;53.336;55.932;2023-02-26T17:54:41;12.60;;;4.13;;
70729;SDS011;58315;53.336;55.932;2023-02-26T17:57:08;12.55;;;4.30;;
70729;SDS011;58315;53.336;55.932;2023-02-26T17:59:40;6.50;;;3.00;;
70729;SDS011;58315;53.336;55.932;2023-02-26T18:02:16;22.33;;;5.65;;
70729;SDS011;58315;53.336;55.932;2023-02-26T18:04:47;8.02;;;4.22;;
70729;SDS011;58315;53.336;55.932;2023-02-26T18:07:14;10.20;;;4.82;;